createdAt,value
2018-03-03T00:00:01.114Z,7.90
2018-03-03T00:01:01.082Z,8.40
2018-03-03T00:02:01.039Z,8.20
2018-03-03T00:03:01.028Z,8.20
2018-03-03T00:04:00.967Z,9.10
2018-03-03T00:05:00.927Z,8.90
2018-03-03T00:06:00.890Z,8.70
2018-03-03T00:07:00.852Z,9.00
2018-03-03T00:08:00.833Z,8.40
2018-03-03T00:09:00.778Z,8.40
2018-03-03T00:10:00.742Z,8.90
2018-03-03T00:11:00.704Z,8.10
2018-03-03T00:12:00.671Z,8.10
2018-03-03T00:13:00.655Z,7.80
2018-03-03T00:14:00.595Z,8.40
2018-03-03T00:15:00.555Z,8.40
2018-03-03T00:16:00.518Z,8.30
2018-03-03T00:17:00.485Z,8.00
2018-03-03T00:18:00.471Z,8.00
2018-03-03T00:19:00.411Z,8.30
2018-03-03T00:20:00.367Z,7.80
2018-03-03T00:21:00.335Z,7.70
2018-03-03T00:22:00.294Z,8.30
2018-03-03T00:23:00.289Z,8.70
2018-03-03T00:24:00.222Z,7.70
2018-03-03T00:25:00.181Z,8.60
2018-03-03T00:26:00.148Z,8.40
2018-03-03T00:27:00.136Z,8.20
2018-03-03T00:28:00.072Z,8.30
2018-03-03T00:29:00.036Z,7.90
2018-03-03T00:29:59.995Z,7.60
2018-03-03T00:30:59.961Z,8.00
2018-03-03T00:32:00.150Z,7.50
2018-03-03T00:32:59.891Z,7.60
2018-03-03T00:34:00.065Z,8.70
2018-03-03T00:34:59.811Z,8.50
2018-03-03T00:35:59.776Z,8.40
2018-03-03T00:36:59.738Z,7.90
2018-03-03T00:37:59.720Z,8.00
2018-03-03T00:38:59.664Z,8.10
2018-03-03T00:39:59.623Z,8.40
2018-03-03T00:40:59.600Z,8.00
2018-03-03T00:41:59.556Z,8.00
2018-03-03T00:42:59.743Z,7.90
2018-03-03T00:43:59.694Z,8.50
2018-03-03T00:44:59.440Z,8.40
2018-03-03T00:45:59.404Z,8.30
2018-03-03T00:46:59.365Z,7.80
2018-03-03T00:47:59.328Z,8.30
2018-03-03T00:48:59.611Z,8.00
2018-03-03T00:49:59.271Z,8.00
2018-03-03T00:50:59.215Z,7.70
2018-03-03T00:51:59.183Z,8.10
2018-03-03T00:52:59.144Z,8.10
2018-03-03T00:53:59.325Z,8.00
2018-03-03T00:54:59.292Z,8.30
2018-03-03T00:55:59.030Z,8.40
2018-03-03T00:56:58.995Z,8.40
2018-03-03T00:57:58.959Z,8.20
2018-03-03T00:58:58.917Z,8.10
2018-03-03T00:59:59.094Z,8.40
2018-03-03T01:00:58.844Z,8.60
2018-03-03T01:01:58.810Z,8.40
2018-03-03T01:02:58.770Z,8.60
2018-03-03T01:03:58.955Z,8.30
2018-03-03T01:04:58.703Z,9.20
2018-03-03T01:05:58.664Z,8.70
2018-03-03T01:06:58.622Z,8.60
2018-03-03T01:07:58.587Z,8.40
2018-03-03T01:08:58.553Z,8.80
2018-03-03T01:09:58.528Z,8.40
2018-03-03T01:10:58.474Z,8.30
2018-03-03T01:11:58.436Z,8.10
2018-03-03T01:12:58.405Z,8.00
2018-03-03T01:13:58.394Z,7.80
2018-03-03T01:14:58.333Z,8.10
2018-03-03T01:15:58.286Z,7.00
2018-03-03T01:16:58.251Z,7.70
2018-03-03T01:17:58.212Z,7.60
2018-03-03T01:18:58.202Z,7.80
2018-03-03T01:19:58.147Z,7.20
2018-03-03T01:20:58.106Z,7.70
2018-03-03T01:21:58.064Z,7.20
2018-03-03T01:22:58.026Z,7.20
2018-03-03T01:23:58.031Z,7.70
2018-03-03T01:24:57.955Z,7.90
2018-03-03T01:25:57.918Z,7.30
2018-03-03T01:26:57.882Z,7.40
2018-03-03T01:27:57.847Z,7.80
2018-03-03T01:28:57.834Z,7.40
2018-03-03T01:29:57.800Z,7.10
2018-03-03T01:30:57.732Z,7.40
2018-03-03T01:31:57.698Z,7.40
2018-03-03T01:32:57.655Z,7.70
2018-03-03T01:33:57.623Z,7.20
2018-03-03T01:34:57.600Z,8.00
2018-03-03T01:35:57.546Z,7.60
2018-03-03T01:36:57.511Z,7.90
2018-03-03T01:37:57.507Z,7.80
2018-03-03T01:38:57.434Z,7.70
2018-03-03T01:39:57.415Z,7.60
2018-03-03T01:40:57.364Z,8.30
2018-03-03T01:41:57.318Z,7.80
2018-03-03T01:42:57.283Z,7.40
2018-03-03T01:43:57.284Z,7.70
2018-03-03T01:44:57.236Z,7.50
2018-03-03T01:45:57.171Z,7.80
2018-03-03T01:46:57.139Z,7.70
2018-03-03T01:47:57.097Z,7.40
2018-03-03T01:48:57.067Z,7.40
2018-03-03T01:49:57.054Z,7.70
2018-03-03T01:50:56.990Z,7.80
2018-03-03T01:51:56.953Z,7.10
2018-03-03T01:52:56.911Z,7.40
2018-03-03T01:53:56.878Z,7.50
2018-03-03T01:54:56.870Z,7.70
2018-03-03T01:55:56.808Z,7.60
2018-03-03T01:56:56.772Z,7.70
2018-03-03T01:57:56.729Z,7.90
2018-03-03T01:58:56.690Z,7.70
2018-03-03T01:59:56.676Z,7.50
2018-03-03T02:00:56.620Z,7.70
2018-03-03T02:01:56.584Z,8.00
2018-03-03T02:02:56.542Z,7.60
2018-03-03T02:03:56.504Z,7.70
2018-03-03T02:04:56.506Z,7.40
2018-03-03T02:05:56.433Z,7.70
2018-03-03T02:06:56.399Z,7.50
2018-03-03T02:07:56.357Z,7.90
2018-03-03T02:08:56.327Z,7.40
2018-03-03T02:09:56.302Z,7.70
2018-03-03T02:10:56.277Z,7.40
2018-03-03T02:11:56.210Z,7.60
2018-03-03T02:12:56.169Z,7.70
2018-03-03T02:13:56.131Z,7.70
2018-03-03T02:14:56.122Z,6.90
2018-03-03T02:15:56.060Z,7.70
2018-03-03T02:16:56.048Z,7.10
2018-03-03T02:17:55.985Z,7.30
2018-03-03T02:18:55.948Z,7.20
2018-03-03T02:19:55.908Z,7.30
2018-03-03T02:20:55.873Z,7.40
2018-03-03T02:21:55.860Z,7.90
2018-03-03T02:22:55.811Z,7.70
2018-03-03T02:23:55.766Z,7.60
2018-03-03T02:24:55.774Z,7.80
2018-03-03T02:25:55.685Z,7.00
2018-03-03T02:26:55.648Z,7.00
2018-03-03T02:27:55.617Z,7.30
2018-03-03T02:28:55.575Z,6.60
2018-03-03T02:29:55.562Z,7.90
2018-03-03T02:30:55.537Z,7.10
2018-03-03T02:31:55.463Z,7.60
2018-03-03T02:32:55.429Z,7.10
2018-03-03T02:33:55.391Z,7.40
2018-03-03T02:34:55.381Z,7.50
2018-03-03T02:35:55.318Z,7.10
2018-03-03T02:36:55.300Z,6.70
2018-03-03T02:37:55.242Z,7.30
2018-03-03T02:38:55.209Z,6.90
2018-03-03T02:39:55.167Z,7.50
2018-03-03T02:40:55.127Z,6.60
2018-03-03T02:41:55.124Z,6.70
2018-03-03T02:42:55.053Z,7.20
2018-03-03T02:43:55.022Z,7.00
2018-03-03T02:44:54.984Z,7.00
2018-03-03T02:45:54.951Z,7.30
2018-03-03T02:46:54.951Z,6.90
2018-03-03T02:47:54.873Z,7.10
2018-03-03T02:48:54.833Z,6.70
2018-03-03T02:49:54.816Z,6.80
2018-03-03T02:50:54.758Z,6.70
2018-03-03T02:51:54.723Z,7.10
2018-03-03T02:52:54.715Z,6.40
2018-03-03T02:53:54.645Z,7.30
2018-03-03T02:54:54.641Z,6.80
2018-03-03T02:55:54.579Z,6.70
2018-03-03T02:56:54.536Z,6.70
2018-03-03T02:57:54.502Z,6.40
2018-03-03T02:58:54.488Z,7.00
2018-03-03T02:59:54.429Z,6.60
2018-03-03T03:00:54.395Z,6.50
2018-03-03T03:01:54.351Z,6.50
2018-03-03T03:02:54.324Z,6.60
2018-03-03T03:03:54.304Z,6.70
2018-03-03T03:04:54.241Z,6.50
2018-03-03T03:05:54.204Z,6.80
2018-03-03T03:06:54.174Z,6.60
2018-03-03T03:07:54.127Z,6.80
2018-03-03T03:08:54.131Z,7.10
2018-03-03T03:09:54.049Z,6.50
2018-03-03T03:10:54.014Z,6.80
2018-03-03T03:11:53.982Z,6.90
2018-03-03T03:12:53.939Z,6.90
2018-03-03T03:13:53.905Z,6.30
2018-03-03T03:14:53.907Z,7.10
2018-03-03T03:15:53.831Z,6.60
2018-03-03T03:16:53.799Z,6.80
2018-03-03T03:17:53.756Z,6.70
2018-03-03T03:18:53.718Z,6.40
2018-03-03T03:19:53.686Z,6.60
2018-03-03T03:20:53.666Z,6.50
2018-03-03T03:21:53.604Z,6.10
2018-03-03T03:22:53.566Z,6.00
2018-03-03T03:23:53.560Z,6.60
2018-03-03T03:24:53.495Z,6.30
2018-03-03T03:25:53.455Z,6.60
2018-03-03T03:26:53.417Z,6.50
2018-03-03T03:27:53.380Z,6.80
2018-03-03T03:28:53.376Z,6.60
2018-03-03T03:29:53.329Z,6.60
2018-03-03T03:30:53.272Z,6.60
2018-03-03T03:31:53.230Z,6.60
2018-03-03T03:32:53.201Z,6.70
2018-03-03T03:33:53.158Z,6.80
2018-03-03T03:34:53.160Z,6.50
2018-03-03T03:35:53.082Z,6.60
2018-03-03T03:36:53.051Z,6.40
2018-03-03T03:37:53.010Z,6.20
2018-03-03T03:38:52.975Z,6.50
2018-03-03T03:39:52.969Z,6.20
2018-03-03T03:40:52.901Z,6.30
2018-03-03T03:41:52.858Z,6.30
2018-03-03T03:42:52.828Z,6.90
2018-03-03T03:43:52.788Z,6.20
2018-03-03T03:44:52.774Z,6.40
2018-03-03T03:45:52.724Z,6.10
2018-03-03T03:46:52.679Z,6.90
2018-03-03T03:47:59.210Z,6.70
2018-03-03T03:48:52.600Z,6.40
2018-03-03T03:49:52.616Z,6.40
2018-03-03T03:50:52.522Z,6.70
2018-03-03T03:51:52.491Z,6.90
2018-03-03T03:52:52.451Z,6.60
2018-03-03T03:53:52.417Z,6.50
2018-03-03T03:54:52.403Z,6.40
2018-03-03T03:55:52.343Z,6.90
2018-03-03T03:56:52.307Z,6.30
2018-03-03T03:57:52.266Z,6.10
2018-03-03T03:58:52.229Z,6.40
2018-03-03T03:59:52.212Z,6.60
2018-03-03T04:00:52.153Z,6.20
2018-03-03T04:01:52.116Z,6.20
2018-03-03T04:02:52.078Z,5.80
2018-03-03T04:03:52.041Z,6.60
2018-03-03T04:04:52.030Z,6.40
2018-03-03T04:05:51.971Z,6.50
2018-03-03T04:06:51.934Z,6.50
2018-03-03T04:07:51.905Z,6.20
2018-03-03T04:08:51.860Z,6.60
2018-03-03T04:09:51.848Z,7.10
2018-03-03T04:10:51.780Z,6.30
2018-03-03T04:11:51.741Z,7.10
2018-03-03T04:12:51.711Z,6.40
2018-03-03T04:13:51.669Z,6.30
2018-03-03T04:14:51.655Z,6.50
2018-03-03T04:15:51.603Z,6.30
2018-03-03T04:16:51.566Z,7.00
2018-03-03T04:17:51.525Z,6.10
2018-03-03T04:18:51.483Z,6.00
2018-03-03T04:19:51.472Z,6.40
2018-03-03T04:20:51.418Z,6.50
2018-03-03T04:21:51.388Z,5.90
2018-03-03T04:22:51.339Z,6.10
2018-03-03T04:23:51.298Z,6.50
2018-03-03T04:24:51.288Z,6.10
2018-03-03T04:25:51.252Z,6.10
2018-03-03T04:26:51.182Z,6.30
2018-03-03T04:27:51.152Z,6.40
2018-03-03T04:28:51.115Z,6.50
2018-03-03T04:29:51.180Z,6.40
2018-03-03T04:30:51.036Z,5.80
2018-03-03T04:31:51.001Z,6.20
2018-03-03T04:32:50.966Z,6.10
2018-03-03T04:33:50.930Z,6.20
2018-03-03T04:34:50.916Z,6.20
2018-03-03T04:35:50.874Z,6.50
2018-03-03T04:36:50.818Z,6.10
2018-03-03T04:37:50.774Z,5.90
2018-03-03T04:38:50.741Z,6.50
2018-03-03T04:39:50.699Z,7.20
2018-03-03T04:40:50.693Z,6.90
2018-03-03T04:41:50.628Z,7.00
2018-03-03T04:42:50.604Z,6.70
2018-03-03T04:43:50.552Z,6.70
2018-03-03T04:44:50.519Z,7.20
2018-03-03T04:45:50.510Z,7.70
2018-03-03T04:46:50.447Z,7.00
2018-03-03T04:47:50.408Z,6.80
2018-03-03T04:48:50.366Z,6.30
2018-03-03T04:49:50.331Z,7.40
2018-03-03T04:50:50.328Z,7.00
2018-03-03T04:51:50.258Z,6.30
2018-03-03T04:52:50.216Z,7.10
2018-03-03T04:53:50.183Z,7.40
2018-03-03T04:54:50.145Z,7.30
2018-03-03T04:55:50.134Z,6.90
2018-03-03T04:56:50.073Z,7.10
2018-03-03T04:57:50.034Z,7.30
2018-03-03T04:58:49.995Z,6.90
2018-03-03T04:59:49.962Z,7.10
2018-03-03T05:00:49.950Z,7.10
2018-03-03T05:01:49.882Z,7.20
2018-03-03T05:02:49.846Z,6.50
2018-03-03T05:03:49.810Z,7.00
2018-03-03T05:04:49.777Z,7.00
2018-03-03T05:05:49.770Z,6.50
2018-03-03T05:06:49.704Z,7.00
2018-03-03T05:07:49.662Z,7.10
2018-03-03T05:08:49.622Z,7.00
2018-03-03T05:09:49.612Z,7.60
2018-03-03T05:10:49.605Z,6.50
2018-03-03T05:11:49.507Z,7.20
2018-03-03T05:12:49.476Z,7.00
2018-03-03T05:13:49.460Z,7.80
2018-03-03T05:14:49.402Z,7.70
2018-03-03T05:15:49.361Z,7.60
2018-03-03T05:16:49.324Z,7.30
2018-03-03T05:17:49.289Z,6.60
2018-03-03T05:18:49.303Z,6.80
2018-03-03T05:19:49.429Z,6.80
2018-03-03T05:20:49.179Z,7.10
2018-03-03T05:21:49.140Z,6.70
2018-03-03T05:22:49.104Z,6.90
2018-03-03T05:23:49.092Z,6.70
2018-03-03T05:26:22.120Z,7.40
2018-03-03T05:27:22.045Z,6.60
2018-03-03T05:28:22.013Z,6.90
2018-03-03T05:29:22.001Z,6.90
2018-03-03T05:30:21.936Z,6.60
2018-03-03T05:31:21.892Z,6.00
2018-03-03T05:32:21.858Z,7.20
2018-03-03T05:33:21.819Z,6.70
2018-03-03T05:34:21.822Z,7.10
2018-03-03T05:35:21.752Z,7.30
2018-03-03T05:36:21.711Z,7.20
2018-03-03T05:37:21.675Z,7.20
2018-03-03T05:38:21.632Z,7.80
2018-03-03T05:39:21.600Z,8.10
2018-03-03T05:40:21.588Z,7.70
2018-03-03T05:41:21.526Z,7.60
2018-03-03T05:42:21.486Z,7.30
2018-03-03T05:43:21.451Z,8.00
2018-03-03T05:44:21.413Z,7.80
2018-03-03T05:45:21.660Z,7.30
2018-03-03T05:46:21.334Z,7.00
2018-03-03T05:47:21.297Z,7.20
2018-03-03T05:48:21.259Z,6.10
2018-03-03T05:49:21.224Z,7.30
2018-03-03T05:50:21.189Z,7.30
2018-03-03T05:51:21.174Z,6.80
2018-03-03T05:52:21.111Z,7.20
2018-03-03T05:53:21.074Z,6.90
2018-03-03T05:54:21.041Z,7.40
2018-03-03T05:55:21.376Z,7.90
2018-03-03T05:56:21.012Z,6.70
2018-03-03T05:57:20.929Z,6.90
2018-03-03T05:58:20.896Z,7.70
2018-03-03T05:59:20.858Z,6.80
2018-03-03T06:00:20.816Z,7.20
2018-03-03T06:01:20.801Z,7.20
2018-03-03T06:02:20.741Z,7.70
2018-03-03T06:03:20.701Z,7.20
2018-03-03T06:04:20.738Z,7.30
2018-03-03T06:05:20.633Z,8.50
2018-03-03T06:06:20.616Z,7.50
2018-03-03T06:07:20.554Z,7.80
2018-03-03T06:08:20.525Z,7.90
2018-03-03T06:09:20.484Z,7.70
2018-03-03T06:10:20.443Z,8.00
2018-03-03T06:11:20.424Z,7.80
2018-03-03T06:12:20.369Z,7.60
2018-03-03T06:13:20.328Z,8.70
2018-03-03T06:14:20.298Z,7.70
2018-03-03T06:15:20.260Z,8.20
2018-03-03T06:16:20.242Z,8.60
2018-03-03T06:17:20.184Z,8.10
2018-03-03T06:18:20.140Z,6.90
2018-03-03T06:19:20.108Z,7.50
2018-03-03T06:20:20.070Z,7.00
2018-03-03T06:21:20.063Z,7.50
2018-03-03T06:22:19.996Z,7.80
2018-03-03T06:23:19.959Z,8.40
2018-03-03T06:24:19.920Z,7.30
2018-03-03T06:25:19.894Z,7.90
2018-03-03T06:26:19.870Z,7.90
2018-03-03T06:27:19.813Z,7.50
2018-03-03T06:28:19.771Z,7.70
2018-03-03T06:29:19.731Z,7.10
2018-03-03T06:30:19.694Z,8.20
2018-03-03T06:31:19.686Z,8.20
2018-03-03T06:32:19.622Z,7.50
2018-03-03T06:33:19.584Z,8.10
2018-03-03T06:34:19.563Z,8.20
2018-03-03T06:35:19.513Z,8.00
2018-03-03T06:36:19.509Z,7.60
2018-03-03T06:37:19.439Z,7.70
2018-03-03T06:38:19.392Z,8.00
2018-03-03T06:39:19.359Z,7.50
2018-03-03T06:40:19.319Z,8.10
2018-03-03T06:41:19.312Z,7.60
2018-03-03T06:42:19.268Z,8.10
2018-03-03T06:43:19.208Z,8.20
2018-03-03T06:44:19.182Z,7.90
2018-03-03T06:45:19.143Z,8.10
2018-03-03T06:46:19.098Z,8.00
2018-03-03T06:47:19.098Z,8.10
2018-03-03T06:48:19.023Z,7.70
2018-03-03T06:49:18.987Z,7.30
2018-03-03T06:50:18.948Z,7.60
2018-03-03T06:51:18.913Z,8.40
2018-03-03T06:52:18.879Z,8.10
2018-03-03T06:53:18.857Z,7.50
2018-03-03T06:54:18.801Z,7.40
2018-03-03T06:55:18.771Z,8.30
2018-03-03T06:56:18.724Z,8.30
2018-03-03T06:57:18.691Z,8.10
2018-03-03T06:58:18.687Z,7.60
2018-03-03T06:59:18.618Z,8.60
2018-03-03T07:00:18.574Z,8.20
2018-03-03T07:01:18.559Z,8.70
2018-03-03T07:02:18.502Z,8.40
2018-03-03T07:03:18.471Z,8.60
2018-03-03T07:04:18.450Z,8.50
2018-03-03T07:05:18.391Z,9.30
2018-03-03T07:06:18.350Z,9.00
2018-03-03T07:07:18.319Z,8.40
2018-03-03T07:08:18.277Z,8.80
2018-03-03T07:09:18.289Z,8.80
2018-03-03T07:10:18.201Z,8.70
2018-03-03T07:11:18.190Z,8.60
2018-03-03T07:12:18.134Z,8.80
2018-03-03T07:13:18.127Z,8.10
2018-03-03T07:14:18.055Z,8.70
2018-03-03T07:15:18.019Z,8.80
2018-03-03T07:16:18.006Z,9.00
2018-03-03T07:17:17.949Z,9.30
2018-03-03T07:18:17.908Z,9.10
2018-03-03T07:19:17.890Z,9.00
2018-03-03T07:20:17.834Z,9.80
2018-03-03T07:21:17.798Z,9.20
2018-03-03T07:22:17.759Z,9.70
2018-03-03T07:23:17.722Z,9.10
2018-03-03T07:24:17.726Z,9.50
2018-03-03T07:25:17.648Z,9.40
2018-03-03T07:26:17.639Z,9.70
2018-03-03T07:27:17.615Z,8.60
2018-03-03T07:28:17.553Z,9.20
2018-03-03T07:29:17.502Z,8.70
2018-03-03T07:30:17.456Z,9.20
2018-03-03T07:31:17.424Z,9.20
2018-03-03T07:32:17.410Z,10.40
2018-03-03T07:33:17.385Z,9.70
2018-03-03T07:34:17.314Z,9.00
2018-03-03T07:35:17.276Z,9.30
2018-03-03T07:36:17.247Z,9.00
2018-03-03T07:37:17.205Z,8.10
2018-03-03T07:38:17.163Z,8.10
2018-03-03T07:39:17.160Z,9.50
2018-03-03T07:40:17.088Z,8.10
2018-03-03T07:41:17.058Z,8.40
2018-03-03T07:42:17.049Z,9.00
2018-03-03T07:43:16.983Z,9.20
2018-03-03T07:44:16.941Z,9.00
2018-03-03T07:45:16.905Z,9.10
2018-03-03T07:46:16.869Z,9.20
2018-03-03T07:47:16.864Z,9.10
2018-03-03T07:48:16.795Z,8.80
2018-03-03T07:49:16.756Z,8.80
2018-03-03T07:50:16.730Z,8.40
2018-03-03T07:52:49.898Z,8.80
2018-03-03T07:53:49.678Z,8.60
2018-03-03T07:54:49.637Z,8.70
2018-03-03T07:55:49.590Z,8.60
2018-03-03T07:56:49.585Z,8.50
2018-03-03T07:57:49.518Z,7.60
2018-03-03T07:58:49.490Z,8.70
2018-03-03T07:59:49.448Z,8.80
2018-03-03T08:00:49.405Z,8.80
2018-03-03T08:01:49.403Z,8.90
2018-03-03T08:02:49.338Z,8.50
2018-03-03T08:03:49.295Z,8.70
2018-03-03T08:04:49.259Z,8.30
2018-03-03T08:05:49.217Z,8.20
2018-03-03T08:06:49.181Z,9.50
2018-03-03T08:07:49.177Z,8.30
2018-03-03T08:08:49.111Z,8.60
2018-03-03T08:09:49.073Z,8.50
2018-03-03T08:10:49.033Z,8.30
2018-03-03T08:11:49.001Z,8.80
2018-03-03T08:12:49.098Z,8.40
2018-03-03T08:13:48.927Z,8.20
2018-03-03T08:14:48.889Z,8.90
2018-03-03T08:15:48.854Z,8.90
2018-03-03T08:16:48.832Z,8.70
2018-03-03T08:17:48.789Z,8.60
2018-03-03T08:18:48.739Z,9.10
2018-03-03T08:19:48.704Z,8.40
2018-03-03T08:20:48.671Z,7.60
2018-03-03T08:21:48.649Z,8.40
2018-03-03T08:22:48.597Z,8.60
2018-03-03T08:23:48.556Z,11.00
2018-03-03T08:24:48.520Z,12.00
2018-03-03T08:25:48.536Z,16.80
2018-03-03T08:26:48.446Z,14.00
2018-03-03T08:27:48.410Z,15.10
2018-03-03T08:28:48.371Z,13.40
2018-03-03T08:29:48.332Z,12.50
2018-03-03T08:30:48.296Z,13.40
2018-03-03T08:31:48.281Z,11.90
2018-03-03T08:32:48.225Z,11.80
2018-03-03T08:33:48.194Z,11.60
2018-03-03T08:34:48.146Z,11.20
2018-03-03T08:35:48.136Z,11.40
2018-03-03T08:36:48.076Z,12.50
2018-03-03T08:37:48.039Z,13.00
2018-03-03T08:38:47.998Z,10.40
2018-03-03T08:39:47.967Z,11.00
2018-03-03T08:40:47.948Z,10.50
2018-03-03T08:41:47.892Z,11.20
2018-03-03T08:42:47.906Z,12.00
2018-03-03T08:43:47.815Z,10.90
2018-03-03T08:44:47.786Z,10.60
2018-03-03T08:45:47.772Z,10.40
2018-03-03T08:46:47.718Z,10.90
2018-03-03T08:47:47.669Z,11.80
2018-03-03T08:48:47.659Z,10.80
2018-03-03T08:49:47.596Z,11.30
2018-03-03T08:50:47.563Z,9.60
2018-03-03T08:51:47.562Z,9.70
2018-03-03T08:52:47.490Z,10.70
2018-03-03T08:53:47.473Z,9.70
2018-03-03T08:54:47.424Z,11.00
2018-03-03T08:55:47.379Z,10.50
2018-03-03T08:56:47.337Z,9.90
2018-03-03T08:57:47.326Z,9.90
2018-03-03T08:58:47.266Z,10.50
2018-03-03T08:59:47.227Z,10.50
2018-03-03T09:00:47.189Z,9.90
2018-03-03T09:01:47.156Z,9.90
2018-03-03T09:02:47.141Z,8.90
2018-03-03T09:03:47.080Z,10.60
2018-03-03T09:04:47.042Z,9.80
2018-03-03T09:05:47.011Z,9.60
2018-03-03T09:06:46.970Z,10.00
2018-03-03T09:07:46.962Z,10.60
2018-03-03T09:08:46.894Z,9.10
2018-03-03T09:09:46.863Z,9.80
2018-03-03T09:10:46.826Z,9.10
2018-03-03T09:11:46.788Z,9.50
2018-03-03T09:12:46.771Z,10.10
2018-03-03T09:13:46.711Z,9.90
2018-03-03T09:14:46.689Z,10.60
2018-03-03T09:15:46.641Z,9.70
2018-03-03T09:16:46.602Z,9.30
2018-03-03T09:17:46.590Z,10.10
2018-03-03T09:18:46.536Z,9.40
2018-03-03T09:19:46.501Z,9.80
2018-03-03T09:20:46.461Z,9.90
2018-03-03T09:21:46.421Z,9.70
2018-03-03T09:22:46.417Z,9.70
2018-03-03T09:23:46.345Z,9.50
2018-03-03T09:24:46.313Z,9.60
2018-03-03T09:25:46.271Z,9.50
2018-03-03T09:26:46.243Z,9.40
2018-03-03T09:27:46.229Z,9.30
2018-03-03T09:28:46.165Z,9.30
2018-03-03T09:29:46.133Z,9.60
2018-03-03T09:30:46.093Z,9.80
2018-03-03T09:31:46.053Z,9.00
2018-03-03T09:32:46.042Z,8.50
2018-03-03T09:33:45.983Z,8.50
2018-03-03T09:34:45.946Z,9.30
2018-03-03T09:35:45.908Z,8.90
2018-03-03T09:36:45.870Z,9.30
2018-03-03T09:37:45.861Z,9.10
2018-03-03T09:38:45.807Z,9.10
2018-03-03T09:39:45.766Z,8.70
2018-03-03T09:40:45.729Z,9.10
2018-03-03T09:41:45.725Z,8.80
2018-03-03T09:42:45.653Z,9.20
2018-03-03T09:43:45.618Z,9.20
2018-03-03T09:44:45.602Z,9.30
2018-03-03T09:45:45.547Z,9.10
2018-03-03T09:46:45.510Z,8.90
2018-03-03T09:47:45.498Z,9.30
2018-03-03T09:48:45.438Z,8.10
2018-03-03T09:49:45.396Z,9.10
2018-03-03T09:50:45.369Z,8.30
2018-03-03T09:51:45.354Z,8.30
2018-03-03T09:52:45.293Z,8.70
2018-03-03T09:53:45.252Z,8.70
2018-03-03T09:54:45.221Z,9.70
2018-03-03T09:55:45.187Z,9.30
2018-03-03T09:56:45.181Z,8.90
2018-03-03T09:57:45.109Z,8.60
2018-03-03T09:58:45.081Z,8.80
2018-03-03T09:59:45.032Z,10.00
2018-03-03T10:00:45.002Z,8.60
2018-03-03T10:01:45.100Z,8.60
2018-03-03T10:02:44.949Z,8.80
2018-03-03T10:03:44.893Z,8.80
2018-03-03T10:04:44.859Z,8.40
2018-03-03T10:05:44.822Z,8.60
2018-03-03T10:06:44.806Z,8.50
2018-03-03T10:07:44.747Z,8.60
2018-03-03T10:08:44.709Z,7.90
2018-03-03T10:09:44.680Z,7.50
2018-03-03T10:10:44.639Z,8.10
2018-03-03T10:11:44.636Z,7.60
2018-03-03T10:12:44.568Z,8.50
2018-03-03T10:13:44.533Z,7.50
2018-03-03T10:14:44.490Z,7.50
2018-03-03T10:15:44.461Z,8.20
2018-03-03T10:16:44.458Z,8.00
2018-03-03T10:17:44.386Z,8.00
2018-03-03T10:18:44.352Z,8.30
2018-03-03T10:19:44.312Z,8.80
2018-03-03T10:20:44.313Z,8.40
2018-03-03T10:21:44.240Z,8.20
2018-03-03T10:22:44.205Z,8.00
2018-03-03T10:23:44.169Z,9.00
2018-03-03T10:24:44.136Z,7.90
2018-03-03T10:25:44.127Z,8.40
2018-03-03T10:26:44.064Z,8.70
2018-03-03T10:27:44.025Z,7.40
2018-03-03T10:28:44.019Z,9.20
2018-03-03T10:29:43.952Z,8.10
2018-03-03T10:30:43.918Z,7.90
2018-03-03T10:31:43.938Z,8.30
2018-03-03T10:32:43.845Z,8.20
2018-03-03T10:33:43.844Z,8.20
2018-03-03T10:34:43.777Z,7.70
2018-03-03T10:35:43.738Z,8.50
2018-03-03T10:36:43.708Z,8.40
2018-03-03T10:37:43.665Z,7.60
2018-03-03T10:38:43.671Z,8.30
2018-03-03T10:39:43.627Z,8.80
2018-03-03T10:40:43.567Z,8.50
2018-03-03T10:41:43.529Z,9.10
2018-03-03T10:42:43.498Z,8.50
2018-03-03T10:43:43.477Z,8.60
2018-03-03T10:44:43.420Z,8.20
2018-03-03T10:45:43.382Z,8.80
2018-03-03T10:46:43.341Z,8.50
2018-03-03T10:47:43.334Z,9.00
2018-03-03T10:48:43.271Z,7.80
2018-03-03T10:49:43.236Z,8.30
2018-03-03T10:50:43.217Z,8.80
2018-03-03T10:51:43.165Z,7.90
2018-03-03T10:52:43.153Z,8.70
2018-03-03T10:53:43.097Z,8.30
2018-03-03T10:54:43.053Z,8.40
2018-03-03T10:55:43.015Z,8.70
2018-03-03T10:56:42.980Z,8.10
2018-03-03T10:57:42.971Z,8.10
2018-03-03T10:58:42.910Z,7.70
2018-03-03T10:59:42.874Z,8.50
2018-03-03T11:00:42.836Z,8.80
2018-03-03T11:01:42.798Z,8.00
2018-03-03T11:02:42.802Z,8.10
2018-03-03T11:03:42.725Z,7.40
2018-03-03T11:04:42.701Z,7.20
2018-03-03T11:05:42.662Z,8.60
2018-03-03T11:06:42.661Z,8.50
2018-03-03T11:07:42.585Z,8.10
2018-03-03T11:08:42.549Z,7.90
2018-03-03T11:09:42.515Z,8.90
2018-03-03T11:10:42.478Z,7.40
2018-03-03T11:11:42.473Z,8.00
2018-03-03T11:12:42.410Z,8.10
2018-03-03T11:13:42.413Z,8.70
2018-03-03T11:14:42.331Z,8.70
2018-03-03T11:15:42.293Z,8.60
2018-03-03T11:16:42.272Z,8.20
2018-03-03T11:17:42.225Z,7.50
2018-03-03T11:18:42.192Z,8.60
2018-03-03T11:19:42.173Z,8.10
2018-03-03T11:20:42.122Z,9.20
2018-03-03T11:21:42.077Z,7.20
2018-03-03T11:22:42.044Z,9.10
2018-03-03T11:23:42.006Z,8.00
2018-03-03T11:24:42.010Z,8.00
2018-03-03T11:25:41.953Z,8.20
2018-03-03T11:26:41.896Z,8.50
2018-03-03T11:27:41.924Z,8.10
2018-03-03T11:28:41.824Z,7.70
2018-03-03T11:29:41.794Z,8.30
2018-03-03T11:30:41.792Z,7.50
2018-03-03T11:31:41.729Z,7.70
2018-03-03T11:32:41.723Z,6.80
2018-03-03T11:33:41.679Z,8.20
2018-03-03T11:34:41.650Z,8.20
2018-03-03T11:35:41.581Z,7.70
2018-03-03T11:36:41.568Z,8.20
2018-03-03T11:37:41.500Z,8.00
2018-03-03T11:38:41.476Z,7.70
2018-03-03T11:39:41.435Z,7.10
2018-03-03T11:40:41.416Z,8.30
2018-03-03T11:41:41.407Z,8.10
2018-03-03T11:42:41.323Z,7.30
2018-03-03T11:43:41.286Z,7.50
2018-03-03T11:44:41.246Z,7.60
2018-03-03T11:45:41.240Z,7.00
2018-03-03T11:46:41.193Z,8.00
2018-03-03T11:47:41.183Z,7.60
2018-03-03T11:48:41.105Z,7.50
2018-03-03T11:49:41.076Z,7.40
2018-03-03T11:50:41.048Z,7.70
2018-03-03T11:51:41.033Z,8.10
2018-03-03T11:52:40.970Z,7.60
2018-03-03T11:53:40.953Z,7.70
2018-03-03T11:54:40.903Z,7.30
2018-03-03T11:55:40.867Z,7.20
2018-03-03T11:56:40.902Z,7.40
2018-03-03T11:57:40.791Z,7.80
2018-03-03T11:58:40.764Z,7.00
2018-03-03T11:59:40.722Z,6.90
2018-03-03T12:00:40.731Z,6.70
2018-03-03T12:01:40.674Z,7.50
2018-03-03T12:02:40.666Z,6.80
2018-03-03T12:03:40.567Z,7.40
2018-03-03T12:04:40.568Z,7.00
2018-03-03T12:05:40.497Z,5.90
2018-03-03T12:06:40.481Z,6.40
2018-03-03T12:07:40.422Z,6.50
2018-03-03T12:08:40.387Z,6.20
2018-03-03T12:09:40.357Z,6.00
2018-03-03T12:10:40.318Z,6.00
2018-03-03T12:11:40.438Z,7.10
2018-03-03T12:12:40.265Z,7.40
2018-03-03T12:13:40.222Z,6.70
2018-03-03T12:14:40.175Z,6.70
2018-03-03T12:15:40.166Z,6.70
2018-03-03T12:16:40.142Z,6.20
2018-03-03T12:17:40.088Z,6.30
2018-03-03T12:18:40.051Z,6.40
2018-03-03T12:19:40.049Z,6.20
2018-03-03T12:20:39.959Z,6.60
2018-03-03T12:21:40.337Z,6.10
2018-03-03T12:22:39.887Z,5.90
2018-03-03T12:23:39.876Z,6.90
2018-03-03T12:24:39.823Z,6.70
2018-03-03T12:25:39.780Z,6.80
2018-03-03T12:26:39.745Z,5.90
2018-03-03T12:27:39.729Z,6.30
2018-03-03T12:28:39.686Z,6.30
2018-03-03T12:29:39.634Z,6.00
2018-03-03T12:30:39.924Z,5.50
2018-03-03T12:31:39.560Z,5.30
2018-03-03T12:32:39.522Z,5.00
2018-03-03T12:33:39.485Z,4.30
2018-03-03T12:34:39.447Z,4.70
2018-03-03T12:35:39.482Z,4.50
2018-03-03T12:36:39.388Z,4.80
2018-03-03T12:37:39.363Z,4.50
2018-03-03T12:38:39.309Z,4.40
2018-03-03T12:39:39.329Z,4.80
2018-03-03T12:40:39.240Z,4.10
2018-03-03T12:41:39.265Z,4.60
2018-03-03T12:42:39.184Z,5.80
2018-03-03T12:43:39.131Z,5.90
2018-03-03T12:44:39.117Z,5.20
2018-03-03T12:45:39.089Z,5.80
2018-03-03T12:46:39.037Z,5.90
2018-03-03T12:47:38.986Z,5.70
2018-03-03T12:48:38.961Z,5.20
2018-03-03T12:49:38.938Z,5.70
2018-03-03T12:50:38.909Z,5.80
2018-03-03T12:51:38.840Z,5.70
2018-03-03T12:52:38.818Z,5.60
2018-03-03T12:53:38.768Z,5.50
2018-03-03T12:54:38.733Z,5.70
2018-03-03T12:55:38.715Z,5.20
2018-03-03T12:56:38.669Z,5.50
2018-03-03T12:57:38.632Z,5.90
2018-03-03T12:58:38.625Z,5.80
2018-03-03T12:59:38.584Z,5.50
2018-03-03T13:00:38.514Z,5.40
2018-03-03T13:01:38.477Z,5.30
2018-03-03T13:02:38.458Z,5.70
2018-03-03T13:03:38.414Z,5.10
2018-03-03T13:04:38.407Z,5.60
2018-03-03T13:05:38.341Z,5.30
2018-03-03T13:06:38.307Z,5.50
2018-03-03T13:07:38.264Z,5.90
2018-03-03T13:08:38.231Z,5.00
2018-03-03T13:09:38.231Z,5.00
2018-03-03T13:10:38.153Z,5.40
2018-03-03T13:11:38.127Z,5.30
2018-03-03T13:12:38.117Z,5.30
2018-03-03T13:13:38.047Z,5.80
2018-03-03T13:14:38.052Z,5.40
2018-03-03T13:15:37.975Z,5.10
2018-03-03T13:16:37.937Z,5.40
2018-03-03T13:17:37.910Z,5.20
2018-03-03T13:18:37.873Z,5.20
2018-03-03T13:19:37.864Z,5.00